createdAt,value
2018-12-11T00:02:38.763Z,1.20
2018-12-11T00:07:32.223Z,1.33
2018-12-11T00:12:25.628Z,1.33
2018-12-11T00:17:18.999Z,1.40
2018-12-11T00:22:12.434Z,1.47
2018-12-11T00:27:05.820Z,1.27
2018-12-11T00:31:59.220Z,1.80
2018-12-11T00:36:52.609Z,1.50
2018-12-11T00:41:45.994Z,1.00
2018-12-11T00:46:39.365Z,1.00
2018-12-11T00:51:32.735Z,1.40
2018-12-11T00:56:26.122Z,1.40
2018-12-11T01:01:19.527Z,1.27
2018-12-11T01:06:12.967Z,1.50
2018-12-11T01:11:06.347Z,1.30
2018-12-11T01:15:59.740Z,1.23
2018-12-11T01:20:53.147Z,1.30
2018-12-11T01:25:46.532Z,1.53
2018-12-11T01:30:39.908Z,1.27
2018-12-11T01:35:33.276Z,0.90
2018-12-11T01:40:26.667Z,1.07
2018-12-11T01:45:20.050Z,1.30
2018-12-11T01:50:13.414Z,1.20
2018-12-11T01:55:06.840Z,1.03
2018-12-11T02:00:00.211Z,1.07
2018-12-11T02:04:53.584Z,1.30
2018-12-11T02:09:46.991Z,1.20
2018-12-11T02:14:40.402Z,1.10
2018-12-11T02:19:33.816Z,1.33
2018-12-11T02:24:27.246Z,0.73
2018-12-11T02:29:20.647Z,1.07
2018-12-11T02:34:14.332Z,0.90
2018-12-11T02:39:07.769Z,0.97
2018-12-11T02:44:01.455Z,0.90
2018-12-11T02:48:54.904Z,0.90
2018-12-11T02:53:48.282Z,1.20
2018-12-11T02:58:41.644Z,1.00
2018-12-11T03:03:35.020Z,1.07
2018-12-11T03:08:28.403Z,1.00
2018-12-11T03:13:21.791Z,1.20
2018-12-11T03:18:15.214Z,1.20
2018-12-11T03:23:08.596Z,1.00
2018-12-11T03:28:01.995Z,1.10
2018-12-11T03:32:55.381Z,1.07
2018-12-11T03:37:48.778Z,1.00
2018-12-11T03:42:42.151Z,1.23
2018-12-11T03:47:35.606Z,1.40
2018-12-11T03:52:29.011Z,0.80
2018-12-11T03:57:22.384Z,0.90
2018-12-11T04:02:15.766Z,1.00
2018-12-11T04:07:09.158Z,1.07
2018-12-11T04:12:02.538Z,1.00
2018-12-11T04:16:56.003Z,0.80
2018-12-11T04:21:49.405Z,0.97
2018-12-11T04:26:42.816Z,0.90
2018-12-11T04:31:36.201Z,0.90
2018-12-11T04:36:29.573Z,0.90
2018-12-11T04:41:23.050Z,1.27
2018-12-11T04:46:16.438Z,1.10
2018-12-11T04:51:09.954Z,0.93
2018-12-11T04:56:03.925Z,1.17
2018-12-11T05:00:57.292Z,1.00
2018-12-11T05:05:50.715Z,1.10
2018-12-11T05:10:44.582Z,0.90
2018-12-11T05:15:37.997Z,0.90
2018-12-11T05:20:31.370Z,1.00
2018-12-11T05:25:24.791Z,0.90
2018-12-11T05:30:18.182Z,1.13
2018-12-11T05:35:11.571Z,0.70
2018-12-11T05:40:04.958Z,1.03
2018-12-11T05:44:58.346Z,0.93
2018-12-11T05:49:51.730Z,1.00
2018-12-11T05:54:45.090Z,1.10
2018-12-11T05:59:38.467Z,0.70
2018-12-11T06:04:31.856Z,0.93
2018-12-11T06:09:25.231Z,0.67
2018-12-11T06:14:18.808Z,1.20
2018-12-11T06:19:12.189Z,1.00
2018-12-11T06:24:05.658Z,1.10
2018-12-11T06:28:59.093Z,1.10
2018-12-11T06:33:52.475Z,0.70
2018-12-11T06:38:45.864Z,0.97
2018-12-11T06:43:39.317Z,0.90
2018-12-11T06:48:32.695Z,0.60
2018-12-11T06:53:26.067Z,0.80
2018-12-11T06:58:19.459Z,0.80
2018-12-11T07:03:12.858Z,0.80
2018-12-11T07:08:06.239Z,0.90
2018-12-11T07:12:59.626Z,0.80
2018-12-11T07:17:52.983Z,0.90
2018-12-11T07:22:46.360Z,0.70
2018-12-11T07:27:39.745Z,1.10
2018-12-11T07:32:33.128Z,0.80
2018-12-11T07:37:26.512Z,0.80
2018-12-11T07:42:19.971Z,0.77
2018-12-11T07:47:13.360Z,0.87
2018-12-11T07:52:06.748Z,0.97
2018-12-11T07:57:00.128Z,0.80
2018-12-11T08:01:55.403Z,0.93
2018-12-11T08:06:48.775Z,0.73
2018-12-11T08:11:42.223Z,1.03
2018-12-11T08:16:35.612Z,0.50
2018-12-11T08:21:28.971Z,1.00
2018-12-11T08:32:28.575Z,0.80
2018-12-11T08:37:21.960Z,0.70
2018-12-11T08:42:15.414Z,0.80
2018-12-11T08:47:08.830Z,0.73
2018-12-11T08:52:02.226Z,0.93
2018-12-11T08:56:55.626Z,1.00
2018-12-11T09:01:49.025Z,0.73
2018-12-11T09:06:42.410Z,0.90
2018-12-11T09:11:35.854Z,0.77
2018-12-11T09:16:29.236Z,0.60
2018-12-11T09:21:23.410Z,0.97
2018-12-11T09:26:16.956Z,0.97
2018-12-11T09:31:10.792Z,0.70
2018-12-11T09:36:04.192Z,0.90
2018-12-11T09:40:57.575Z,0.70
2018-12-11T09:45:50.964Z,0.80
2018-12-11T09:50:44.332Z,0.77
2018-12-11T09:55:37.717Z,0.90
2018-12-11T10:00:31.128Z,0.90
2018-12-11T10:05:24.457Z,1.07
2018-12-11T10:10:17.855Z,0.90
2018-12-11T10:15:11.242Z,0.90
2018-12-11T10:20:05.571Z,0.87
2018-12-11T10:24:58.692Z,0.70
2018-12-11T10:29:52.158Z,0.83
2018-12-11T10:34:45.652Z,0.77
2018-12-11T10:39:39.099Z,0.70
2018-12-11T10:44:32.505Z,0.80
2018-12-11T10:49:25.957Z,0.80
2018-12-11T10:54:19.370Z,0.70
2018-12-11T10:59:12.795Z,0.90
2018-12-11T11:04:06.156Z,0.70
2018-12-11T11:08:59.594Z,0.70
2018-12-11T11:13:52.980Z,0.67
2018-12-11T11:18:46.362Z,0.70
2018-12-11T11:23:39.784Z,0.60
2018-12-11T11:28:33.163Z,0.73
2018-12-11T11:33:26.569Z,0.80
2018-12-11T11:38:19.950Z,0.80
2018-12-11T11:43:13.310Z,0.70
2018-12-11T11:48:06.683Z,0.80
2018-12-11T11:53:00.076Z,0.83
2018-12-11T11:57:53.462Z,0.70
2018-12-11T12:02:46.872Z,0.70
2018-12-11T12:07:40.255Z,0.80
2018-12-11T12:12:33.665Z,1.10
2018-12-11T12:17:27.048Z,1.20
2018-12-11T12:22:21.400Z,0.70
2018-12-11T12:27:13.799Z,0.83
2018-12-11T12:32:07.200Z,0.70
2018-12-11T12:37:00.601Z,0.70
2018-12-11T12:41:53.994Z,0.93
2018-12-11T12:46:47.365Z,0.60
2018-12-11T12:51:40.752Z,0.67
2018-12-11T12:56:34.139Z,0.80
2018-12-11T13:01:27.550Z,1.00
2018-12-11T13:06:20.956Z,0.80
2018-12-11T13:11:14.345Z,0.60
2018-12-11T13:16:07.712Z,0.77
2018-12-11T13:21:01.123Z,0.73
2018-12-11T13:25:54.527Z,1.03
2018-12-11T13:30:47.930Z,0.87
2018-12-11T13:35:41.307Z,0.70
2018-12-11T13:40:34.690Z,0.70
2018-12-11T13:45:28.068Z,0.80
2018-12-11T13:50:21.434Z,1.03
2018-12-11T13:55:14.803Z,0.77
2018-12-11T14:05:11.533Z,0.70
2018-12-11T14:10:04.960Z,0.60
2018-12-11T14:14:58.350Z,0.50
2018-12-11T14:19:51.771Z,0.50
2018-12-11T14:24:45.155Z,0.70
2018-12-11T14:29:38.560Z,0.73
2018-12-11T14:34:31.951Z,0.70
2018-12-11T14:39:25.330Z,1.00
2018-12-11T14:44:18.712Z,0.50
2018-12-11T14:49:12.127Z,0.53
2018-12-11T14:54:05.518Z,0.50
2018-12-11T14:58:58.895Z,0.70
2018-12-11T15:03:52.323Z,0.70
2018-12-11T15:08:45.910Z,0.50
2018-12-11T15:13:39.450Z,0.73
2018-12-11T15:18:32.819Z,0.70
2018-12-11T15:23:26.284Z,0.67
2018-12-11T15:28:19.679Z,0.83
2018-12-11T15:33:13.160Z,0.77
2018-12-11T15:38:06.554Z,0.80
2018-12-11T15:42:59.944Z,0.57
2018-12-11T15:47:53.395Z,0.80
2018-12-11T15:52:46.832Z,1.00
2018-12-11T15:57:40.268Z,0.60
2018-12-11T16:02:33.701Z,0.73
2018-12-11T16:07:27.154Z,1.00
2018-12-11T16:12:20.556Z,0.80
2018-12-11T16:17:13.951Z,0.87
2018-12-11T16:22:07.359Z,0.70
2018-12-11T16:27:00.739Z,0.70
2018-12-11T16:31:54.142Z,0.73
2018-12-11T16:36:47.571Z,0.70
2018-12-11T16:41:41.048Z,0.60
2018-12-11T16:46:34.497Z,0.80
2018-12-11T16:51:27.892Z,0.80
2018-12-11T16:56:21.273Z,1.00
2018-12-11T17:01:14.675Z,0.77
2018-12-11T17:12:13.955Z,1.30
2018-12-11T17:17:07.334Z,1.10
2018-12-11T17:22:00.727Z,1.30
2018-12-11T17:26:54.112Z,0.97
2018-12-11T17:31:47.524Z,0.93
2018-12-11T17:36:40.921Z,1.00
2018-12-11T17:41:34.381Z,0.80
2018-12-11T17:46:27.751Z,0.90
2018-12-11T17:51:21.133Z,1.17
2018-12-11T17:56:14.529Z,1.03
2018-12-11T18:01:08.169Z,1.40
2018-12-11T18:06:01.696Z,1.20
2018-12-11T18:10:55.095Z,1.20
2018-12-11T18:15:48.530Z,1.07
2018-12-11T18:20:41.912Z,1.13
2018-12-11T18:25:35.300Z,1.10
2018-12-11T18:30:28.700Z,1.20
2018-12-11T18:35:22.985Z,1.10
2018-12-11T18:40:16.368Z,1.20
2018-12-11T18:45:09.778Z,1.30
2018-12-11T18:50:03.983Z,1.70
2018-12-11T18:54:57.362Z,1.73
2018-12-11T18:59:50.811Z,2.03
2018-12-11T19:04:44.497Z,1.80
2018-12-11T19:09:38.018Z,2.10
2018-12-11T19:14:31.395Z,2.03
2018-12-11T19:19:24.783Z,2.27
2018-12-11T19:24:46.456Z,2.10
2018-12-11T19:29:39.834Z,2.13
2018-12-11T19:34:33.242Z,2.27
2018-12-11T19:39:26.639Z,2.43
2018-12-11T19:44:20.052Z,2.90
2018-12-11T19:49:13.421Z,2.83
2018-12-11T19:54:06.877Z,2.80
2018-12-11T19:59:00.228Z,3.13
2018-12-11T20:03:53.653Z,3.00
2018-12-11T20:08:47.079Z,3.23
2018-12-11T20:13:40.463Z,3.13
2018-12-11T20:18:33.852Z,3.03
2018-12-11T20:23:27.252Z,2.40
2018-12-11T20:28:20.659Z,2.97
2018-12-11T20:33:14.052Z,2.87
2018-12-11T20:38:07.426Z,3.40
2018-12-11T20:43:00.803Z,3.83
2018-12-11T20:47:54.202Z,4.30
2018-12-11T20:52:48.165Z,4.03
2018-12-11T20:57:41.644Z,4.30
2018-12-11T21:02:35.037Z,3.80
2018-12-11T21:07:28.434Z,4.50
2018-12-11T21:12:21.812Z,4.27
2018-12-11T21:17:15.210Z,4.67
2018-12-11T21:22:08.605Z,4.13
2018-12-11T21:27:02.036Z,4.37
2018-12-11T21:31:55.447Z,4.77
2018-12-11T21:36:48.859Z,4.33
2018-12-11T21:41:42.236Z,4.93
2018-12-11T21:46:35.643Z,4.33
2018-12-11T21:51:29.062Z,5.60
2018-12-11T21:56:22.497Z,4.70
2018-12-11T22:01:15.884Z,4.10
2018-12-11T22:06:09.294Z,3.97
2018-12-11T22:11:02.683Z,3.63
2018-12-11T22:15:56.078Z,4.37
2018-12-11T22:20:49.485Z,4.20
2018-12-11T22:25:42.894Z,4.23
2018-12-11T22:30:36.363Z,3.57
2018-12-11T22:35:29.744Z,4.13
2018-12-11T22:40:23.131Z,3.87
2018-12-11T22:45:16.527Z,4.13
2018-12-11T22:50:10.015Z,4.37
2018-12-11T22:55:03.559Z,4.13
2018-12-11T22:59:56.984Z,3.70
2018-12-11T23:04:50.386Z,4.30
2018-12-11T23:09:44.826Z,4.53
2018-12-11T23:14:38.206Z,4.03
2018-12-11T23:19:31.588Z,3.73
2018-12-11T23:24:24.997Z,4.53
2018-12-11T23:29:21.310Z,4.37
2018-12-11T23:34:14.748Z,3.90
2018-12-11T23:39:08.114Z,4.27
2018-12-11T23:44:01.504Z,4.50
2018-12-11T23:48:54.885Z,4.07
2018-12-11T23:53:48.279Z,4.63
2018-12-11T23:58:41.687Z,4.13
